Time;durP1;ratioP1;P1;durP2;ratioP2;P2;SDS_P1;SDS_P2;PMS_P1;PMS_P2;Temp;Humidity;BMP_temperature;BMP_pressure;BME280_temperature;BME280_humidity;BME280_pressure;Samples;Min_cycle;Max_cycle;Signal;HPM_P1;HPM_P2
2022/05/17 00:00:42;;;;;;;31.58;18.00;;;;;;;;;;5053816;28;20052;-68
2022/05/17 00:03:47;;;;;;;31.08;17.23;;;;;;;;;;5053709;28;20047;-69
2022/05/17 00:06:51;;;;;;;30.23;16.85;;;;;;;;;;5052591;28;20044;-68
2022/05/17 00:09:55;;;;;;;36.33;17.23;;;;;;;;;;5053285;28;20052;-68
2022/05/17 00:12:59;;;;;;;30.73;16.50;;;;;;;;;;5053469;28;20040;-68
2022/05/17 00:16:04;;;;;;;33.67;16.35;;;;;;;;;;5053457;28;20381;-68
2022/05/17 00:19:09;;;;;;;36.53;15.60;;;;;;;;;;5053199;28;20503;-69
2022/05/17 00:22:13;;;;;;;30.70;16.52;;;;;;;;;;5053221;28;20500;-68
2022/05/17 00:25:18;;;;;;;27.92;17.42;;;;;;;;;;5053686;28;20377;-68
2022/05/17 00:28:23;;;;;;;34.33;16.30;;;;;;;;;;5053344;28;20043;-69
2022/05/17 00:31:28;;;;;;;25.02;16.55;;;;;;;;;;5041134;28;20044;-68
2022/05/17 00:34:33;;;;;;;30.58;17.63;;;;;;;;;;5053005;28;20040;-68
2022/05/17 00:37:37;;;;;;;32.13;16.77;;;;;;;;;;5053469;28;20047;-69
2022/05/17 00:40:41;;;;;;;32.22;18.20;;;;;;;;;;5052214;28;20052;-69
2022/05/17 00:47:18;;;;;;;37.05;15.52;;;;;;;;;;5052978;28;20044;-68
2022/05/17 00:50:23;;;;;;;27.92;13.07;;;;;;;;;;5053031;28;20036;-69
2022/05/17 00:53:31;;;;;;;30.05;14.05;;;;;;;;;;5053041;28;20110;-68
2022/05/17 00:56:38;;;;;;;24.35;15.10;;;;;;;;;;5053091;28;20476;-69
2022/05/17 00:59:42;;;;;;;33.80;15.63;;;;;;;;;;5052751;28;20056;-68
2022/05/17 01:02:49;;;;;;;28.13;14.15;;;;;;;;;;5052806;28;20047;-68
2022/05/17 01:05:54;;;;;;;30.23;14.00;;;;;;;;;;5052726;28;20497;-68
2022/05/17 01:08:58;;;;;;;24.30;13.25;;;;;;;;;;5052333;28;20055;-68
2022/05/17 01:12:03;;;;;;;22.00;12.90;;;;;;;;;;5052835;28;20056;-69
2022/05/17 01:15:09;;;;;;;23.55;13.48;;;;;;;;;;5052315;28;20495;-68
2022/05/17 01:18:13;;;;;;;26.88;13.48;;;;;;;;;;5052480;28;20093;-68
2022/05/17 01:21:17;;;;;;;24.05;11.93;;;;;;;;;;5052260;28;20408;-69
2022/05/17 01:24:22;;;;;;;35.15;13.32;;;;;;;;;;5052502;28;20064;-69
2022/05/17 01:27:34;;;;;;;25.27;13.13;;;;;;;;;;5052450;28;20048;-69
2022/05/17 01:30:38;;;;;;;27.23;12.77;;;;;;;;;;5052093;28;20393;-68
2022/05/17 01:33:42;;;;;;;19.10;12.60;;;;;;;;;;5051583;28;20048;-68
2022/05/17 02:37:30;;;;;;;24.77;15.35;;;;;;;;;;1905442;28;22014;-69
2022/05/17 02:40:36;;;;;;;28.33;14.07;;;;;;;;;;5050954;28;20056;-69
2022/05/17 02:43:39;;;;;;;30.15;13.85;;;;;;;;;;5049737;28;20036;-69
2022/05/17 02:46:44;;;;;;;31.20;14.13;;;;;;;;;;5050822;28;20060;-69
2022/05/17 02:49:48;;;;;;;27.52;13.88;;;;;;;;;;5050838;28;20043;-69
2022/05/17 02:52:52;;;;;;;32.13;14.25;;;;;;;;;;5050481;28;20056;-69
2022/05/17 02:55:57;;;;;;;28.35;14.07;;;;;;;;;;5050652;28;20047;-69
2022/05/17 02:59:01;;;;;;;29.65;14.07;;;;;;;;;;5050844;28;20052;-69
2022/05/17 03:02:06;;;;;;;29.25;14.90;;;;;;;;;;5050617;28;20056;-69
2022/05/17 03:05:11;;;;;;;31.67;14.52;;;;;;;;;;5050650;28;20048;-69
2022/05/17 03:08:15;;;;;;;33.65;14.02;;;;;;;;;;5049799;28;20512;-69
2022/05/17 03:11:21;;;;;;;33.55;13.68;;;;;;;;;;5050266;28;20048;-69
2022/05/17 03:14:25;;;;;;;28.42;14.25;;;;;;;;;;5050581;28;20044;-69
2022/05/17 03:17:30;;;;;;;30.38;14.52;;;;;;;;;;5050527;28;20044;-69
2022/05/17 03:20:34;;;;;;;26.45;14.93;;;;;;;;;;5050177;28;20048;-69
2022/05/17 03:23:38;;;;;;;28.25;15.15;;;;;;;;;;5049288;28;20203;-69
2022/05/17 03:26:42;;;;;;;28.92;14.38;;;;;;;;;;5051022;28;20500;-69
2022/05/17 03:29:47;;;;;;;25.45;15.13;;;;;;;;;;5050265;28;20052;-69
2022/05/17 03:32:51;;;;;;;24.33;15.18;;;;;;;;;;5050231;28;20523;-69
2022/05/17 03:35:55;;;;;;;25.27;14.90;;;;;;;;;;5050669;28;20404;-69
2022/05/17 03:39:00;;;;;;;30.30;15.27;;;;;;;;;;5050053;28;20511;-69
2022/05/17 03:42:04;;;;;;;33.35;14.55;;;;;;;;;;5050298;28;20040;-69
2022/05/17 03:45:09;;;;;;;32.75;14.93;;;;;;;;;;5050510;28;20127;-69
2022/05/17 03:48:13;;;;;;;27.85;14.55;;;;;;;;;;5050858;28;20048;-69
2022/05/17 03:51:18;;;;;;;23.98;15.05;;;;;;;;;;5050025;28;20492;-69
2022/05/17 03:54:23;;;;;;;25.48;13.93;;;;;;;;;;5050413;28;20047;-69
2022/05/17 03:57:28;;;;;;;26.42;14.60;;;;;;;;;;5053006;28;20056;-69
2022/05/17 04:00:32;;;;;;;28.42;14.88;;;;;;;;;;5053621;28;20401;-69
2022/05/17 04:03:39;;;;;;;29.77;14.27;;;;;;;;;;5053709;28;20040;-69
2022/05/17 04:06:43;;;;;;;30.20;15.98;;;;;;;;;;5053631;28;20042;-69
2022/05/17 04:09:48;;;;;;;35.28;17.80;;;;;;;;;;5052936;28;20503;-69
2022/05/17 04:12:52;;;;;;;36.78;16.85;;;;;;;;;;5053525;28;20044;-68
2022/05/17 04:15:57;;;;;;;31.95;16.13;;;;;;;;;;5053474;28;20044;-68
2022/05/17 04:19:02;;;;;;;31.52;15.93;;;;;;;;;;5052654;28;20496;-68
2022/05/17 04:22:11;;;;;;;26.90;15.57;;;;;;;;;;5053272;28;20052;-68
2022/05/17 04:25:18;;;;;;;41.38;15.60;;;;;;;;;;5053326;28;20151;-68
2022/05/17 04:28:22;;;;;;;30.27;15.07;;;;;;;;;;5053446;28;20492;-68
2022/05/17 04:31:27;;;;;;;29.70;15.25;;;;;;;;;;5052895;28;20060;-68
2022/05/17 04:34:32;;;;;;;28.73;13.73;;;;;;;;;;5053071;28;20040;-68
2022/05/17 04:37:36;;;;;;;28.58;14.48;;;;;;;;;;5053125;28;20060;-69
2022/05/17 04:40:41;;;;;;;31.35;14.70;;;;;;;;;;5052778;28;20507;-69
2022/05/17 04:43:46;;;;;;;22.95;13.60;;;;;;;;;;5052248;28;20060;-69
2022/05/17 04:46:50;;;;;;;26.33;12.27;;;;;;;;;;5053138;28;20056;-69
2022/05/17 04:49:55;;;;;;;33.83;13.07;;;;;;;;;;5052666;28;20056;-69
2022/05/17 04:53:00;;;;;;;35.97;12.98;;;;;;;;;;5052542;28;20052;-69
2022/05/17 04:56:05;;;;;;;32.75;13.27;;;;;;;;;;5052967;28;20048;-68
2022/05/17 04:59:09;;;;;;;40.97;14.32;;;;;;;;;;5052749;28;20520;-69
2022/05/17 05:02:14;;;;;;;37.85;14.50;;;;;;;;;;5051439;28;20043;-69
2022/05/17 05:05:18;;;;;;;38.15;14.32;;;;;;;;;;5053626;28;20043;-68
2022/05/17 05:08:23;;;;;;;34.17;14.23;;;;;;;;;;5051125;28;20108;-69
2022/05/17 05:11:28;;;;;;;28.77;14.45;;;;;;;;;;5052304;28;20044;-69
2022/05/17 05:14:33;;;;;;;50.80;15.35;;;;;;;;;;5052177;28;20056;-68
2022/05/17 05:17:37;;;;;;;30.35;15.23;;;;;;;;;;5051997;28;20112;-69
2022/05/17 05:20:43;;;;;;;43.33;16.33;;;;;;;;;;5053923;28;20059;-68
2022/05/17 05:23:48;;;;;;;37.40;16.55;;;;;;;;;;5028764;28;20036;-68
2022/05/17 05:26:52;;;;;;;38.17;16.35;;;;;;;;;;5052081;28;20064;-69
2022/05/17 05:29:57;;;;;;;32.53;16.08;;;;;;;;;;5040077;28;20044;-68
2022/05/17 05:33:01;;;;;;;39.67;17.60;;;;;;;;;;5052292;28;20052;-68
2022/05/17 05:36:06;;;;;;;31.48;13.98;;;;;;;;;;5052298;28;20043;-67
2022/05/17 05:39:10;;;;;;;29.60;13.82;;;;;;;;;;5051852;28;20056;-67
2022/05/17 05:42:15;;;;;;;22.42;12.40;;;;;;;;;;5052179;28;20052;-67
2022/05/17 05:45:19;;;;;;;28.77;14.20;;;;;;;;;;5051504;28;20044;-74
2022/05/17 05:48:24;;;;;;;38.20;15.70;;;;;;;;;;5050796;28;20056;-75
2022/05/17 05:51:28;;;;;;;33.03;16.83;;;;;;;;;;5050690;28;20112;-75
2022/05/17 05:54:32;;;;;;;34.17;15.15;;;;;;;;;;5051896;28;20538;-75
2022/05/17 05:57:37;;;;;;;50.33;15.15;;;;;;;;;;5052247;28;20048;-71
2022/05/17 06:00:41;;;;;;;35.17;16.25;;;;;;;;;;5050406;28;20055;-71
2022/05/17 06:03:45;;;;;;;34.65;14.50;;;;;;;;;;5049573;28;20076;-71
2022/05/17 06:06:50;;;;;;;36.13;15.50;;;;;;;;;;5049534;28;20048;-70
2022/05/17 06:09:54;;;;;;;40.05;13.32;;;;;;;;;;5049722;28;20052;-70
2022/05/17 06:12:59;;;;;;;32.40;13.13;;;;;;;;;;5049243;28;20052;-71
2022/05/17 06:16:04;;;;;;;31.48;13.98;;;;;;;;;;5049496;28;20055;-71
2022/05/17 06:19:08;;;;;;;30.58;11.75;;;;;;;;;;5051023;28;20059;-70
2022/05/17 06:22:12;;;;;;;29.45;10.82;;;;;;;;;;5050493;28;20048;-70
2022/05/17 06:25:17;;;;;;;28.23;12.70;;;;;;;;;;5051579;28;20048;-71
2022/05/17 06:28:21;;;;;;;26.15;12.48;;;;;;;;;;5051124;28;20048;-71
2022/05/17 06:31:26;;;;;;;38.20;14.32;;;;;;;;;;5051082;28;20048;-71
2022/05/17 06:34:30;;;;;;;35.13;13.73;;;;;;;;;;5050753;28;20048;-71
2022/05/17 06:37:34;;;;;;;32.22;14.60;;;;;;;;;;5050407;28;20060;-70
2022/05/17 06:40:39;;;;;;;43.65;15.40;;;;;;;;;;5050561;28;20079;-71
2022/05/17 06:43:43;;;;;;;48.90;14.88;;;;;;;;;;5050575;28;20044;-71
2022/05/17 06:46:47;;;;;;;35.35;13.98;;;;;;;;;;5050877;28;20052;-71
2022/05/17 06:49:52;;;;;;;30.08;14.05;;;;;;;;;;5050734;28;20052;-71
2022/05/17 06:52:56;;;;;;;29.48;14.05;;;;;;;;;;5050765;28;20051;-71
2022/05/17 06:56:04;;;;;;;22.90;12.52;;;;;;;;;;5050757;28;20044;-71
2022/05/17 06:59:08;;;;;;;26.08;12.02;;;;;;;;;;5050780;28;20067;-71
2022/05/17 07:02:13;;;;;;;27.10;12.60;;;;;;;;;;5050621;28;20047;-71
2022/05/17 07:05:17;;;;;;;41.35;14.32;;;;;;;;;;5050796;28;20397;-70
2022/05/17 07:08:22;;;;;;;20.98;11.23;;;;;;;;;;5050535;28;20052;-71
2022/05/17 07:14:49;;;;;;;24.27;10.63;;;;;;;;;;5050458;28;20302;-71
2022/05/17 07:17:53;;;;;;;25.40;10.32;;;;;;;;;;5049543;28;20040;-71
2022/05/17 07:21:00;;;;;;;26.08;11.05;;;;;;;;;;5050315;28;20064;-69
2022/05/17 07:24:05;;;;;;;35.22;10.93;;;;;;;;;;5050761;28;20040;-70
2022/05/17 07:27:09;;;;;;;21.45;10.15;;;;;;;;;;5050483;28;20052;-69
2022/05/17 07:30:14;;;;;;;28.95;11.95;;;;;;;;;;5050582;28;20051;-69
2022/05/17 07:33:19;;;;;;;33.45;12.15;;;;;;;;;;5042244;28;20044;-70
2022/05/17 07:36:23;;;;;;;28.92;12.18;;;;;;;;;;5054365;28;20658;-71
2022/05/17 07:39:29;;;;;;;27.38;12.38;;;;;;;;;;5053767;28;20052;-70
2022/05/17 07:42:33;;;;;;;22.88;9.82;;;;;;;;;;5053617;28;20054;-71
2022/05/17 07:45:37;;;;;;;20.75;10.23;;;;;;;;;;5053237;28;20052;-70
2022/05/17 07:48:41;;;;;;;25.70;10.27;;;;;;;;;;5054240;28;20052;-70
2022/05/17 07:51:46;;;;;;;22.50;11.55;;;;;;;;;;5054064;28;20048;-70
2022/05/17 07:54:51;;;;;;;23.42;10.40;;;;;;;;;;5053828;28;20043;-69
2022/05/17 07:57:55;;;;;;;19.30;10.80;;;;;;;;;;5053909;28;20051;-69
2022/05/17 08:00:59;;;;;;;31.48;11.18;;;;;;;;;;5052660;28;20665;-68
2022/05/17 08:04:04;;;;;;;34.80;11.23;;;;;;;;;;5052910;28;20044;-71
2022/05/17 08:07:08;;;;;;;26.20;10.38;;;;;;;;;;5053880;28;20044;-70
2022/05/17 08:10:12;;;;;;;34.63;11.43;;;;;;;;;;5053500;28;20039;-69
2022/05/17 08:13:17;;;;;;;24.10;9.85;;;;;;;;;;5053411;28;20076;-69
2022/05/17 08:16:21;;;;;;;26.42;9.48;;;;;;;;;;5053486;28;20056;-69
2022/05/17 08:19:26;;;;;;;18.27;9.20;;;;;;;;;;5052802;28;20056;-68
2022/05/17 08:22:30;;;;;;;22.80;8.60;;;;;;;;;;5053519;28;20055;-68
2022/05/17 08:28:57;;;;;;;24.13;9.00;;;;;;;;;;5053126;28;20048;-67
2022/05/17 08:35:24;;;;;;;29.75;7.55;;;;;;;;;;5053414;28;20047;-68
2022/05/17 08:38:40;;;;;;;24.77;7.82;;;;;;;;;;5052861;28;20064;-69
2022/05/17 08:41:48;;;;;;;23.15;6.40;;;;;;;;;;5052694;28;20048;-70
2022/05/17 08:44:57;;;;;;;19.33;6.45;;;;;;;;;;5052930;28;20040;-70
2022/05/17 08:48:04;;;;;;;19.25;7.93;;;;;;;;;;5052892;28;20036;-70
2022/05/17 08:51:08;;;;;;;18.30;6.55;;;;;;;;;;5051551;28;20048;-70
2022/05/17 08:54:18;;;;;;;14.65;6.20;;;;;;;;;;5052201;28;20047;-70
2022/05/17 08:57:28;;;;;;;18.95;8.20;;;;;;;;;;5052712;28;20044;-68
2022/05/17 09:00:38;;;;;;;23.80;9.15;;;;;;;;;;5052335;28;20048;-69
2022/05/17 09:04:06;;;;;;;18.80;6.43;;;;;;;;;;5052800;28;20421;-72
2022/05/17 09:07:25;;;;;;;16.67;6.00;;;;;;;;;;5052485;28;20068;-71
2022/05/17 09:10:35;;;;;;;35.30;7.45;;;;;;;;;;5051812;28;20051;-70
2022/05/17 09:13:39;;;;;;;;;;;;;;;;;;5052727;28;20404;-69
2022/05/17 09:16:45;;;;;;;14.70;6.35;;;;;;;;;;5051975;28;19916;-68
2022/05/17 09:19:50;;;;;;;12.43;6.03;;;;;;;;;;5051930;28;20052;-68
2022/05/17 09:22:54;;;;;;;15.48;5.65;;;;;;;;;;5051915;28;20044;-70
2022/05/17 09:25:58;;;;;;;14.65;5.43;;;;;;;;;;5051646;28;20496;-70
2022/05/17 09:29:18;;;;;;;16.40;6.38;;;;;;;;;;5051836;28;20052;-72
2022/05/17 09:32:24;;;;;;;21.25;5.82;;;;;;;;;;5051123;28;20492;-71
2022/05/17 09:35:28;;;;;;;17.83;5.60;;;;;;;;;;5051883;28;20055;-70
2022/05/17 09:38:34;;;;;;;10.75;5.10;;;;;;;;;;5051247;28;20059;-71
2022/05/17 09:41:41;;;;;;;24.63;8.25;;;;;;;;;;5051348;28;20056;-72
2022/05/17 09:44:46;;;;;;;25.35;6.40;;;;;;;;;;5050343;28;20040;-71
2022/05/17 09:47:56;;;;;;;23.15;5.07;;;;;;;;;;5051493;28;20595;-70
2022/05/17 09:54:31;;;;;;;17.65;5.22;;;;;;;;;;5051146;28;20045;-70
2022/05/17 09:57:36;;;;;;;17.20;5.03;;;;;;;;;;5051491;28;20044;-71
2022/05/17 10:00:45;;;;;;;22.98;6.35;;;;;;;;;;5051239;28;20048;-70
2022/05/17 10:04:01;;;;;;;12.82;4.55;;;;;;;;;;5050126;28;20529;-71
2022/05/17 10:07:11;;;;;;;13.05;5.25;;;;;;;;;;5051337;28;20382;-71
2022/05/17 10:10:39;;;;;;;28.70;5.63;;;;;;;;;;5049947;28;20040;-72
2022/05/17 10:14:02;;;;;;;14.20;4.78;;;;;;;;;;5050259;28;20511;-71
2022/05/17 10:17:09;;;;;;;23.17;6.25;;;;;;;;;;5050238;28;20040;-73
2022/05/17 10:20:15;;;;;;;19.23;5.55;;;;;;;;;;5050663;28;20056;-71
2022/05/17 10:23:20;;;;;;;15.95;4.93;;;;;;;;;;5050564;28;20496;-75
2022/05/17 10:26:30;;;;;;;17.33;6.03;;;;;;;;;;5051109;28;20112;-75
2022/05/17 10:29:45;;;;;;;16.02;5.80;;;;;;;;;;5049860;28;20519;-70
2022/05/17 10:32:52;;;;;;;16.05;5.50;;;;;;;;;;5038834;28;20048;-74
2022/05/17 10:35:59;;;;;;;24.35;5.82;;;;;;;;;;5050589;28;20051;-72
2022/05/17 10:39:11;;;;;;;14.10;4.55;;;;;;;;;;5050586;28;20052;-73
2022/05/17 10:42:17;;;;;;;19.15;4.88;;;;;;;;;;5050661;28;20048;-76
2022/05/17 10:45:23;;;;;;;20.80;5.68;;;;;;;;;;5049796;28;20043;-74
2022/05/17 10:48:38;;;;;;;10.55;4.32;;;;;;;;;;5050595;28;20401;-74
2022/05/17 10:52:05;;;;;;;13.80;4.72;;;;;;;;;;5050702;28;20056;-73
2022/05/17 10:55:12;;;;;;;15.48;5.20;;;;;;;;;;5050698;28;20036;-72
2022/05/17 10:58:25;;;;;;;21.42;5.68;;;;;;;;;;5049398;28;20067;-72
2022/05/17 11:01:38;;;;;;;14.52;4.95;;;;;;;;;;5050294;28;20064;-74
2022/05/17 11:04:57;;;;;;;15.85;5.47;;;;;;;;;;5049624;28;20048;-72
2022/05/17 11:08:01;;;;;;;18.02;5.85;;;;;;;;;;5053210;28;20656;-71
2022/05/17 11:11:24;;;;;;;14.77;5.60;;;;;;;;;;5054378;28;20040;-70
2022/05/17 11:14:28;;;;;;;16.60;5.13;;;;;;;;;;5054707;28;20052;-71
2022/05/17 11:17:40;;;;;;;21.60;5.22;;;;;;;;;;5054663;28;20048;-72
2022/05/17 11:20:53;;;;;;;17.33;4.97;;;;;;;;;;5053382;28;20056;-71
2022/05/17 11:24:08;;;;;;;12.70;5.32;;;;;;;;;;5053923;28;20051;-72
2022/05/17 11:27:27;;;;;;;15.77;5.53;;;;;;;;;;5053668;28;20052;-72
2022/05/17 11:30:44;;;;;;;16.75;4.82;;;;;;;;;;5054153;28;20100;-71
2022/05/17 11:33:48;;;;;;;15.82;4.78;;;;;;;;;;5054501;28;20054;-71
2022/05/17 11:36:55;;;;;;;18.52;5.32;;;;;;;;;;5054401;28;20052;-71
2022/05/17 11:40:07;;;;;;;17.95;5.28;;;;;;;;;;5053402;28;20056;-72
2022/05/17 11:46:43;;;;;;;17.65;4.25;;;;;;;;;;5053227;28;20052;-71
2022/05/17 11:49:47;;;;;;;12.90;4.65;;;;;;;;;;5054071;28;20052;-70
2022/05/17 11:53:10;;;;;;;13.95;4.97;;;;;;;;;;5053185;28;20235;-70
2022/05/17 11:56:21;;;;;;;12.07;3.78;;;;;;;;;;5053845;28;20032;-71
2022/05/17 11:59:27;;;;;;;13.07;4.47;;;;;;;;;;5054258;28;20056;-72
2022/05/17 12:02:41;;;;;;;15.35;4.35;;;;;;;;;;5053665;28;20050;-71
2022/05/17 12:05:47;;;;;;;12.63;4.38;;;;;;;;;;5053827;28;20040;-72
2022/05/17 12:08:51;;;;;;;19.50;4.80;;;;;;;;;;5053565;28;20568;-71
2022/05/17 12:11:56;;;;;;;12.02;4.85;;;;;;;;;;5040947;28;20384;-72
2022/05/17 12:15:19;;;;;;;14.90;4.63;;;;;;;;;;5053200;28;20056;-71
2022/05/17 12:18:33;;;;;;;7.07;3.65;;;;;;;;;;5052874;28;20036;-71
2022/05/17 12:21:58;;;;;;;10.75;4.30;;;;;;;;;;5040941;28;20049;-71
2022/05/17 12:25:02;;;;;;;15.02;4.47;;;;;;;;;;5052601;28;20086;-70
2022/05/17 12:28:19;;;;;;;14.30;3.85;;;;;;;;;;5053536;28;20047;-71
2022/05/17 12:31:26;;;;;;;9.88;3.83;;;;;;;;;;5053258;28;20052;-71
2022/05/17 12:34:30;;;;;;;18.85;4.20;;;;;;;;;;5053442;28;20481;-71
2022/05/17 12:37:38;;;;;;;14.60;4.85;;;;;;;;;;5041020;28;20044;-71
2022/05/17 12:44:06;;;;;;;11.93;3.90;;;;;;;;;;5052981;28;20044;-70
2022/05/17 12:47:15;;;;;;;18.85;4.53;;;;;;;;;;5053326;28;20491;-74
2022/05/17 12:50:40;;;;;;;19.17;5.05;;;;;;;;;;5053428;28;20381;-71
2022/05/17 12:53:45;;;;;;;16.55;4.25;;;;;;;;;;5056353;28;20056;-71
2022/05/17 12:56:50;;;;;;;16.75;3.88;;;;;;;;;;5052670;28;20048;-71
2022/05/17 13:00:07;;;;;;;15.95;4.00;;;;;;;;;;5052218;28;20035;-71
2022/05/17 13:03:19;;;;;;;13.13;3.85;;;;;;;;;;5052857;28;20111;-74
2022/05/17 13:06:31;;;;;;;15.20;3.70;;;;;;;;;;5052790;28;20052;-72
2022/05/17 13:09:37;;;;;;;7.65;3.60;;;;;;;;;;5051772;28;20194;-74
2022/05/17 13:12:43;;;;;;;13.07;3.50;;;;;;;;;;5052569;28;20041;-71
2022/05/17 13:15:48;;;;;;;15.95;3.97;;;;;;;;;;5051365;28;20132;-72
2022/05/17 13:18:52;;;;;;;14.00;3.67;;;;;;;;;;5052485;28;20056;-71
2022/05/17 13:21:57;;;;;;;8.77;3.20;;;;;;;;;;5052068;28;20056;-71
2022/05/17 13:25:02;;;;;;;18.67;5.28;;;;;;;;;;5052520;28;20041;-72
2022/05/17 13:28:08;;;;;;;12.68;3.67;;;;;;;;;;5051339;28;20052;-73
2022/05/17 13:31:19;;;;;;;15.57;4.63;;;;;;;;;;5052102;28;20044;-72
2022/05/17 13:34:27;;;;;;;19.55;4.00;;;;;;;;;;5052188;28;20103;-70
2022/05/17 13:37:32;;;;;;;10.70;3.63;;;;;;;;;;5051075;28;20064;-73
2022/05/17 13:40:39;;;;;;;14.23;3.45;;;;;;;;;;5051520;28;20060;-72
2022/05/17 13:43:44;;;;;;;13.32;3.15;;;;;;;;;;5052099;28;20052;-74
2022/05/17 13:46:49;;;;;;;9.25;2.63;;;;;;;;;;5051922;28;20503;-72
2022/05/17 13:49:57;;;;;;;8.05;3.50;;;;;;;;;;5050820;28;20037;-72
2022/05/17 13:53:03;;;;;;;14.13;4.45;;;;;;;;;;5051281;28;20461;-73
2022/05/17 13:56:07;;;;;;;17.58;3.13;;;;;;;;;;5051290;28;20044;-71
2022/05/17 13:59:13;;;;;;;15.10;4.07;;;;;;;;;;5051732;28;20040;-70
2022/05/17 14:02:31;;;;;;;13.77;3.67;;;;;;;;;;5051364;28;20416;-71
2022/05/17 14:05:36;;;;;;;12.30;3.30;;;;;;;;;;5050514;28;20040;-71
2022/05/17 14:12:23;;;;;;;18.52;4.30;;;;;;;;;;5051238;28;20468;-71
2022/05/17 14:15:27;;;;;;;16.55;3.92;;;;;;;;;;5050637;28;20401;-71
2022/05/17 14:18:40;;;;;;;15.57;3.58;;;;;;;;;;5051377;28;20048;-71
2022/05/17 14:21:45;;;;;;;13.02;3.50;;;;;;;;;;5051055;28;20056;-71
2022/05/17 14:24:50;;;;;;;12.05;3.20;;;;;;;;;;5050083;28;20381;-71
2022/05/17 14:27:58;;;;;;;13.60;3.25;;;;;;;;;;5051400;28;20049;-71
2022/05/17 14:31:03;;;;;;;16.90;3.55;;;;;;;;;;5051013;28;20489;-69
2022/05/17 14:34:09;;;;;;;10.95;3.38;;;;;;;;;;5050683;28;20039;-71
2022/05/17 14:37:15;;;;;;;17.70;3.83;;;;;;;;;;5048843;28;20036;-73
2022/05/17 14:40:20;;;;;;;23.30;5.13;;;;;;;;;;5037229;28;20056;-75
2022/05/17 14:43:25;;;;;;;20.73;3.53;;;;;;;;;;5048934;28;20044;-71
2022/05/17 14:46:30;;;;;;;19.85;3.85;;;;;;;;;;5050434;28;20040;-73
2022/05/17 14:49:34;;;;;;;11.73;3.65;;;;;;;;;;5049069;28;20048;-74
2022/05/17 14:52:42;;;;;;;16.33;3.55;;;;;;;;;;5049388;28;20051;-74
2022/05/17 14:55:46;;;;;;;12.32;3.47;;;;;;;;;;5050179;28;20131;-74
2022/05/17 14:58:51;;;;;;;17.13;3.60;;;;;;;;;;5049258;28;20511;-72
2022/05/17 15:01:56;;;;;;;16.27;3.50;;;;;;;;;;5048918;28;20052;-73
2022/05/17 15:05:01;;;;;;;14.68;3.55;;;;;;;;;;5050263;28;20040;-73
2022/05/17 15:08:09;;;;;;;10.07;3.65;;;;;;;;;;5050585;28;20048;-72
2022/05/17 15:11:14;;;;;;;14.02;3.78;;;;;;;;;;5050286;28;20040;-73
2022/05/17 15:14:18;;;;;;;7.35;3.25;;;;;;;;;;5050547;28;20048;-71
2022/05/17 15:17:23;;;;;;;12.07;3.78;;;;;;;;;;5049475;28;20497;-72
2022/05/17 15:20:27;;;;;;;12.68;3.75;;;;;;;;;;5050041;28;20052;-73
2022/05/17 15:23:32;;;;;;;18.58;4.72;;;;;;;;;;5050608;28;20511;-72
2022/05/17 15:26:37;;;;;;;15.98;4.13;;;;;;;;;;5050325;28;20397;-73
2022/05/17 15:29:42;;;;;;;15.00;3.53;;;;;;;;;;5050169;28;20044;-72
2022/05/17 15:32:46;;;;;;;24.75;5.47;;;;;;;;;;5049211;28;20412;-73
2022/05/17 15:35:50;;;;;;;13.57;4.35;;;;;;;;;;5049653;28;20200;-76
2022/05/17 15:38:56;;;;;;;12.60;3.65;;;;;;;;;;5049872;28;20140;-74
2022/05/17 15:42:00;;;;;;;14.00;3.80;;;;;;;;;;5049626;28;20060;-72
2022/05/17 15:45:04;;;;;;;15.40;5.70;;;;;;;;;;5050155;28;20322;-72
2022/05/17 15:54:57;;;;;;;17.42;4.10;;;;;;;;;;5053480;28;20068;-74
2022/05/17 15:58:02;;;;;;;15.32;4.28;;;;;;;;;;5052847;28;20044;-72
2022/05/17 16:01:09;;;;;;;12.35;3.95;;;;;;;;;;5053324;28;20051;-72
2022/05/17 16:14:24;;;;;;;21.80;6.93;;;;;;;;;;5053153;28;20195;-72
2022/05/17 16:17:29;;;;;;;15.98;4.65;;;;;;;;;;5053425;28;20044;-74
2022/05/17 16:20:33;;;;;;;29.02;6.57;;;;;;;;;;5052914;28;20131;-74
2022/05/17 16:23:38;;;;;;;23.45;8.10;;;;;;;;;;5053518;28;20056;-73
2022/05/17 16:26:42;;;;;;;18.27;5.68;;;;;;;;;;5051948;28;20040;-71
2022/05/17 16:29:46;;;;;;;23.25;5.95;;;;;;;;;;5052857;28;20393;-74
2022/05/17 16:32:55;;;;;;;18.17;5.78;;;;;;;;;;5052195;28;20048;-75
2022/05/17 16:35:59;;;;;;;27.98;5.88;;;;;;;;;;5052831;28;20036;-76
2022/05/17 16:39:05;;;;;;;16.30;5.57;;;;;;;;;;5053077;28;20392;-74
2022/05/17 16:42:10;;;;;;;19.00;5.85;;;;;;;;;;5052611;28;20080;-78
2022/05/17 16:45:15;;;;;;;25.33;7.97;;;;;;;;;;5052810;28;20044;-76
2022/05/17 16:48:19;;;;;;;23.45;9.45;;;;;;;;;;5053267;28;20051;-75
2022/05/17 16:51:24;;;;;;;19.67;7.78;;;;;;;;;;5052443;28;20385;-72
2022/05/17 16:54:28;;;;;;;23.92;7.45;;;;;;;;;;5052970;28;20064;-72
2022/05/17 16:57:33;;;;;;;21.25;7.32;;;;;;;;;;5052010;28;20036;-73
2022/05/17 17:00:38;;;;;;;17.02;5.10;;;;;;;;;;5052469;28;20048;-72
2022/05/17 17:03:44;;;;;;;21.85;4.88;;;;;;;;;;5052549;28;20052;-71
2022/05/17 17:06:48;;;;;;;20.35;5.10;;;;;;;;;;5052480;28;20468;-72
2022/05/17 17:09:53;;;;;;;14.82;4.78;;;;;;;;;;5040196;28;20044;-71
2022/05/17 17:12:57;;;;;;;20.70;6.20;;;;;;;;;;5051371;28;20081;-70
2022/05/17 17:16:02;;;;;;;18.17;4.95;;;;;;;;;;5052013;28;20048;-70
2022/05/17 17:19:06;;;;;;;18.50;5.50;;;;;;;;;;5052191;28;20036;-71
2022/05/17 17:22:11;;;;;;;26.77;4.65;;;;;;;;;;5051671;28;20059;-71
2022/05/17 17:25:17;;;;;;;25.38;4.80;;;;;;;;;;5052359;28;20064;-76
2022/05/17 17:28:22;;;;;;;14.20;4.47;;;;;;;;;;5052256;28;20050;-77
2022/05/17 17:31:27;;;;;;;16.73;4.43;;;;;;;;;;5052148;28;20071;-77
2022/05/17 17:37:54;;;;;;;21.30;4.15;;;;;;;;;;5051598;28;20052;-77
2022/05/17 17:40:59;;;;;;;19.30;4.47;;;;;;;;;;5050592;28;20052;-75
2022/05/17 17:44:04;;;;;;;18.15;4.35;;;;;;;;;;5050832;28;20044;-75
2022/05/17 17:47:08;;;;;;;20.35;8.00;;;;;;;;;;5051025;28;20075;-75
2022/05/17 17:50:16;;;;;;;21.88;4.50;;;;;;;;;;5050662;28;20532;-75
2022/05/17 17:53:20;;;;;;;26.23;4.72;;;;;;;;;;5051462;28;20040;-75
2022/05/17 17:56:26;;;;;;;19.33;4.65;;;;;;;;;;5051704;28;20051;-75
2022/05/17 17:59:30;;;;;;;26.13;5.35;;;;;;;;;;5051473;28;20044;-75
2022/05/17 18:02:35;;;;;;;26.60;5.22;;;;;;;;;;5049615;28;20055;-76
2022/05/17 18:05:40;;;;;;;23.55;6.05;;;;;;;;;;5051321;28;20041;-75
2022/05/17 18:08:44;;;;;;;27.15;5.07;;;;;;;;;;5051469;28;20067;-75
2022/05/17 18:11:49;;;;;;;21.15;5.82;;;;;;;;;;5051128;28;20120;-75
2022/05/17 18:14:54;;;;;;;15.95;5.15;;;;;;;;;;5050793;28;20064;-74
2022/05/17 18:17:59;;;;;;;17.17;5.40;;;;;;;;;;5039143;28;20044;-74
2022/05/17 18:21:03;;;;;;;20.80;5.40;;;;;;;;;;5050792;28;20048;-73
2022/05/17 18:24:08;;;;;;;22.40;5.35;;;;;;;;;;5050453;28;20215;-75
2022/05/17 18:27:12;;;;;;;15.02;5.00;;;;;;;;;;5051136;28;20044;-75
2022/05/17 18:30:18;;;;;;;25.23;5.85;;;;;;;;;;5051049;28;20048;-75
2022/05/17 18:33:22;;;;;;;21.23;6.20;;;;;;;;;;5050868;28;20052;-75
2022/05/17 18:36:28;;;;;;;23.00;6.57;;;;;;;;;;5050866;28;20400;-76
2022/05/17 18:39:33;;;;;;;21.73;7.47;;;;;;;;;;5050727;28;20056;-75
2022/05/17 18:42:41;;;;;;;14.52;5.35;;;;;;;;;;5050716;28;20068;-75
2022/05/17 18:45:46;;;;;;;18.48;6.03;;;;;;;;;;5050861;28;20044;-72
2022/05/17 18:48:52;;;;;;;20.20;5.68;;;;;;;;;;5050469;28;20048;-72
2022/05/17 18:51:57;;;;;;;15.30;5.32;;;;;;;;;;5050852;28;20052;-72
2022/05/17 18:55:04;;;;;;;27.33;5.85;;;;;;;;;;5038844;28;20076;-73
2022/05/17 18:58:09;;;;;;;13.55;5.10;;;;;;;;;;5050075;28;20048;-72
2022/05/17 19:01:18;;;;;;;23.42;6.00;;;;;;;;;;5050474;28;20056;-73
2022/05/17 19:04:22;;;;;;;21.50;5.90;;;;;;;;;;5051103;28;20393;-72
2022/05/17 19:14:12;;;;;;;19.73;6.70;;;;;;;;;;5050495;28;20048;-72
2022/05/17 19:17:17;;;;;;;16.85;5.85;;;;;;;;;;5050265;28;20048;-72
2022/05/17 19:20:21;;;;;;;14.50;6.50;;;;;;;;;;5050846;28;20048;-72
2022/05/17 19:23:25;;;;;;;15.18;6.30;;;;;;;;;;5050455;28;20052;-72
2022/05/17 19:26:30;;;;;;;16.15;6.55;;;;;;;;;;5050469;28;20051;-72
2022/05/17 19:29:35;;;;;;;25.63;9.02;;;;;;;;;;5054507;28;20048;-72
2022/05/17 19:32:40;;;;;;;22.85;9.95;;;;;;;;;;5054359;28;20524;-72
2022/05/17 19:35:45;;;;;;;18.98;8.02;;;;;;;;;;5053863;28;20055;-72
2022/05/17 19:42:14;;;;;;;17.15;6.03;;;;;;;;;;5054084;28;20052;-72
2022/05/17 19:45:18;;;;;;;15.77;7.18;;;;;;;;;;5054144;28;20055;-71
2022/05/17 19:48:27;;;;;;;14.88;5.82;;;;;;;;;;5053662;28;20052;-71
2022/05/17 19:51:31;;;;;;;10.98;6.40;;;;;;;;;;5052926;28;20048;-72
2022/05/17 19:54:36;;;;;;;20.70;6.88;;;;;;;;;;5054067;28;20036;-72
2022/05/17 19:57:43;;;;;;;17.55;6.68;;;;;;;;;;5054156;28;20044;-72
2022/05/17 20:00:48;;;;;;;26.15;7.68;;;;;;;;;;5053685;28;20063;-72
2022/05/17 20:03:53;;;;;;;16.55;6.88;;;;;;;;;;5053695;28;20048;-71
2022/05/17 20:06:57;;;;;;;30.98;9.93;;;;;;;;;;5053286;28;20048;-72
2022/05/17 20:10:02;;;;;;;20.30;7.47;;;;;;;;;;5053880;28;20040;-72
2022/05/17 20:13:06;;;;;;;17.13;7.85;;;;;;;;;;5053687;28;20040;-72